Gabo Island, Victoria

5:13 PM AEST on September 01, 2015 (GMT +1000)
Main Wharf, Mallacoota, Vic, Australia | | Change Station
CLOSE
Current Station
Personal Weather Station
Location: Mallacoota, VICTORIA
Elevation: 29 ft
Nearby Weather Stations

Elev 29 ft 37.55 °S, 149.76 °E | Updated 9 seconds ago

Clear
Clear
53.3 °F
Feels Like 53.3 °F
N
1.6
Wind Variable Wind from WSW
Gusts 6.0 mph

Today
High -- | Low -- °F
--% Chance of Precip.
Yesterday
High -- | Low -- °F
Precip. -- in
6:22 AM 5:38 PM
Waning Gibbous, 91% visible
Pressure 29.92 in
Visibility 6.2 miles
Clouds
Dew Point 41 °F
Humidity 66%
Rainfall in
Snow Depth Not available.
UV Not available.
Pollen Not available.
Air Quality Not available.
Flu Activity Not available.
METAR YMER 010700Z AUTO 17007KT 9999 // NCD 14/05 Q1013
Pressure 29.92 in
Visibility 6.2 miles
Clouds
Dew Point 41 °F
Humidity 66%
Rainfall in
Snow Depth Not available.
UV Not available.
Pollen Not available.
Air Quality Not available.
Flu Activity Not available.
METAR YMER 010700Z AUTO 17007KT 9999 // NCD 14/05 Q1013

10-Day Weather Forecast

×

Almanac

Astronomy

Sep. 01, 2015 Rise Set
Actual Time
Civil Twilight
Nautical Twilight
Astronomical Twilight
Moon
Length of Visible Light
Length of Day
Tomorrow will be .
, % of the Moon is Illuminated

Today's Extremes

Country Highs Country Lows

Community

WunderPhotos

Upload Photos

1,851,488 photos uploaded!

WunderBlogs® & News

Nearby

Air Quality

  Air Quality AQ Index Pollutant
Not available.

Snow Depth

Station Depth Elevation

Earthquake Activity

City Distance Mag. Time & Date
Minimum magnitude displayed is 2.5.

Coastal Water Temperatures

Place Temperature

Stations

Nearby Weather Stations

Station Location Temp. Windchill Dew Point Humidity Wind Precip. Elev Updated Type